createdAt,value
2022-12-23T00:00:00.594Z,10.0
2022-12-23T00:01:02.445Z,10.0
2022-12-23T00:02:00.738Z,9.9
2022-12-23T00:03:00.822Z,9.9
2022-12-23T00:04:00.691Z,9.9
2022-12-23T00:05:00.619Z,9.9
2022-12-23T00:06:00.659Z,9.9
2022-12-23T00:07:00.594Z,9.9
2022-12-23T00:08:00.593Z,9.9
2022-12-23T00:09:00.619Z,9.9
2022-12-23T00:10:00.619Z,9.9
2022-12-23T00:11:00.624Z,9.9
2022-12-23T00:12:00.636Z,10.0
2022-12-23T00:13:00.608Z,10.0
2022-12-23T00:14:00.590Z,9.9
2022-12-23T00:15:00.641Z,9.9
2022-12-23T00:16:05.148Z,9.9
2022-12-23T00:17:00.638Z,9.9
2022-12-23T00:18:00.595Z,10.0
2022-12-23T00:19:00.612Z,10.0
2022-12-23T00:20:01.085Z,10.0
2022-12-23T00:21:08.489Z,10.0
2022-12-23T00:22:00.621Z,10.0
2022-12-23T00:23:00.587Z,10.0
2022-12-23T00:24:00.622Z,10.0
2022-12-23T00:25:00.619Z,10.0
2022-12-23T00:26:00.712Z,10.0
2022-12-23T00:27:00.619Z,10.0
2022-12-23T00:28:00.594Z,10.0
2022-12-23T00:29:00.622Z,10.0
2022-12-23T00:30:00.702Z,10.0
2022-12-23T00:31:02.296Z,10.0
2022-12-23T00:32:00.656Z,10.0
2022-12-23T00:33:00.618Z,10.0
2022-12-23T00:34:00.632Z,10.0
2022-12-23T00:35:00.782Z,10.0
2022-12-23T00:36:00.929Z,10.0
2022-12-23T00:37:00.594Z,10.0
2022-12-23T00:38:00.616Z,10.0
2022-12-23T00:39:00.596Z,10.0
2022-12-23T00:40:06.137Z,10.0
2022-12-23T00:41:00.587Z,10.0
2022-12-23T00:42:00.669Z,10.0
2022-12-23T00:43:00.615Z,10.0
2022-12-23T00:44:01.099Z,10.0
2022-12-23T00:45:00.620Z,10.0
2022-12-23T00:46:00.675Z,10.0
2022-12-23T00:47:00.588Z,10.0
2022-12-23T00:48:00.589Z,10.0
2022-12-23T00:49:00.595Z,10.0
2022-12-23T00:50:00.611Z,10.0
2022-12-23T00:51:00.595Z,10.0
2022-12-23T00:52:00.662Z,9.9
2022-12-23T00:53:00.629Z,9.9
2022-12-23T00:54:00.737Z,10.0
2022-12-23T00:55:00.637Z,10.0
2022-12-23T00:56:00.599Z,10.0
2022-12-23T00:57:00.733Z,10.0
2022-12-23T00:58:00.607Z,9.9
2022-12-23T00:59:00.670Z,9.9
2022-12-23T01:00:00.603Z,10.0
2022-12-23T01:01:00.717Z,10.0
2022-12-23T01:02:01.007Z,9.9
2022-12-23T01:03:00.741Z,9.9
2022-12-23T01:04:00.866Z,9.9
2022-12-23T01:05:00.599Z,9.9
2022-12-23T01:06:01.503Z,9.9
2022-12-23T01:07:01.163Z,9.9
2022-12-23T01:08:00.605Z,9.9
2022-12-23T01:09:00.624Z,9.9
2022-12-23T01:10:00.648Z,10.0
2022-12-23T01:11:02.894Z,10.0
2022-12-23T01:12:01.185Z,10.0
2022-12-23T01:13:00.626Z,10.0
2022-12-23T01:14:00.616Z,10.0
2022-12-23T01:15:00.611Z,10.0
2022-12-23T01:16:02.193Z,10.0
2022-12-23T01:17:00.656Z,10.0
2022-12-23T01:18:00.670Z,10.0
2022-12-23T01:19:00.586Z,10.0
2022-12-23T01:20:00.664Z,10.0
2022-12-23T01:21:02.827Z,10.0
2022-12-23T01:22:00.653Z,10.0
2022-12-23T01:23:00.616Z,10.0
2022-12-23T01:24:00.794Z,10.0
2022-12-23T01:25:00.756Z,10.0
2022-12-23T01:26:01.736Z,10.0
2022-12-23T01:27:00.590Z,10.0
2022-12-23T01:28:00.594Z,9.9
2022-12-23T01:29:00.729Z,9.9
2022-12-23T01:30:00.619Z,9.9
2022-12-23T01:31:01.964Z,9.9
2022-12-23T01:32:00.700Z,9.9
2022-12-23T01:33:00.623Z,9.9
2022-12-23T01:34:00.621Z,10.0
2022-12-23T01:35:00.636Z,10.0
2022-12-23T01:36:03.057Z,10.0
2022-12-23T01:37:00.592Z,10.0
2022-12-23T01:38:00.597Z,9.9
2022-12-23T01:39:00.630Z,9.9
2022-12-23T01:40:00.661Z,9.9
2022-12-23T01:41:00.640Z,9.9
2022-12-23T01:42:00.641Z,9.9
2022-12-23T01:43:00.613Z,9.9
2022-12-23T01:44:00.608Z,10.0
2022-12-23T01:45:03.355Z,10.0
2022-12-23T01:46:00.665Z,9.9
2022-12-23T01:47:10.527Z,9.9
2022-12-23T01:48:05.400Z,9.9
2022-12-23T01:49:00.630Z,9.9
2022-12-23T01:50:00.581Z,9.9
2022-12-23T01:51:03.782Z,9.9
2022-12-23T01:52:00.814Z,9.9
2022-12-23T01:53:07.650Z,9.9
2022-12-23T01:54:00.943Z,9.9
2022-12-23T01:55:00.771Z,9.9
2022-12-23T01:56:00.596Z,9.9
2022-12-23T01:57:00.701Z,9.9
2022-12-23T01:58:06.622Z,9.9
2022-12-23T01:59:02.199Z,9.9
2022-12-23T02:00:00.684Z,9.9
2022-12-23T02:01:01.093Z,9.9
2022-12-23T02:02:00.895Z,9.9
2022-12-23T02:03:00.712Z,9.9
2022-12-23T02:04:03.057Z,9.9
2022-12-23T02:05:01.299Z,9.9
2022-12-23T02:06:01.421Z,10.0
2022-12-23T02:07:00.674Z,10.0
2022-12-23T02:08:00.822Z,10.0
2022-12-23T02:09:00.654Z,10.0
2022-12-23T02:10:01.207Z,10.0
2022-12-23T02:11:10.569Z,10.0
2022-12-23T02:12:01.635Z,10.0
2022-12-23T02:13:10.246Z,10.0
2022-12-23T02:14:01.634Z,10.0
2022-12-23T02:15:06.960Z,10.0
2022-12-23T02:16:07.500Z,10.0
2022-12-23T02:17:08.109Z,10.0
2022-12-23T02:18:06.264Z,9.9
2022-12-23T02:19:08.873Z,9.9
2022-12-23T02:20:10.563Z,10.0
2022-12-23T02:21:01.624Z,10.0
2022-12-23T02:22:10.565Z,10.0
2022-12-23T02:23:01.618Z,10.0
2022-12-23T02:24:01.655Z,10.0
2022-12-23T02:25:10.614Z,10.0
2022-12-23T02:26:10.540Z,10.0
2022-12-23T02:27:07.648Z,10.0
2022-12-23T02:28:10.587Z,10.0
2022-12-23T02:29:07.965Z,10.0
2022-12-23T02:30:10.563Z,10.0
2022-12-23T02:31:05.781Z,10.0
2022-12-23T02:32:10.559Z,10.0
2022-12-23T02:33:03.895Z,10.0
2022-12-23T02:34:10.536Z,9.9
2022-12-23T02:35:09.840Z,9.9
2022-12-23T02:36:08.136Z,9.9
2022-12-23T02:37:09.998Z,9.9
2022-12-23T02:38:08.138Z,9.9
2022-12-23T02:39:04.335Z,9.9
2022-12-23T02:40:10.548Z,9.9
2022-12-23T02:41:10.574Z,9.9
2022-12-23T02:42:05.892Z,10.0
2022-12-23T02:43:05.326Z,10.0
2022-12-23T02:44:06.959Z,9.9
2022-12-23T02:45:10.556Z,9.9
2022-12-23T02:46:06.431Z,10.0
2022-12-23T02:47:04.512Z,10.0
2022-12-23T02:48:03.530Z,10.0
2022-12-23T02:49:00.624Z,10.0
2022-12-23T02:50:04.520Z,10.0
2022-12-23T02:51:01.158Z,10.0
2022-12-23T02:52:02.464Z,9.9
2022-12-23T02:53:02.823Z,9.9
2022-12-23T02:54:02.791Z,9.9
2022-12-23T02:55:05.275Z,9.9
2022-12-23T02:56:02.283Z,10.0
2022-12-23T02:57:02.924Z,10.0
2022-12-23T02:58:04.851Z,9.9
2022-12-23T02:59:05.496Z,9.9
2022-12-23T03:00:00.977Z,10.0
2022-12-23T03:01:00.868Z,10.0
2022-12-23T03:02:00.791Z,10.0
2022-12-23T03:03:00.794Z,10.0
2022-12-23T03:04:00.847Z,9.9
2022-12-23T03:05:01.223Z,9.9
2022-12-23T03:06:01.217Z,9.9
2022-12-23T03:07:07.102Z,9.9
2022-12-23T03:08:03.070Z,10.0
2022-12-23T03:09:00.585Z,10.0
2022-12-23T03:10:08.043Z,9.9
2022-12-23T03:11:02.619Z,9.9
2022-12-23T03:12:04.506Z,10.0
2022-12-23T03:13:10.535Z,10.0
2022-12-23T03:14:09.284Z,10.0
2022-12-23T03:15:07.903Z,10.0
2022-12-23T03:16:10.630Z,10.0
2022-12-23T03:17:03.859Z,10.0
2022-12-23T03:18:01.582Z,10.0
2022-12-23T03:19:08.093Z,10.0
2022-12-23T03:20:10.552Z,9.9
2022-12-23T03:21:10.546Z,9.9
2022-12-23T03:22:10.523Z,9.9
2022-12-23T03:23:06.818Z,9.9
2022-12-23T03:24:10.550Z,10.0
2022-12-23T03:25:00.578Z,10.0
2022-12-23T03:26:00.603Z,9.9
2022-12-23T03:27:07.307Z,9.9
2022-12-23T03:28:00.577Z,9.9
2022-12-23T03:29:04.755Z,9.9
2022-12-23T03:30:02.748Z,10.0
2022-12-23T03:31:02.223Z,10.0
2022-12-23T03:32:02.407Z,10.0
2022-12-23T03:33:02.995Z,10.0
2022-12-23T03:34:02.831Z,10.0
2022-12-23T03:35:01.571Z,10.0
2022-12-23T03:36:05.720Z,10.1
2022-12-23T03:37:03.325Z,10.1
2022-12-23T03:38:01.942Z,10.0
2022-12-23T03:39:02.460Z,10.0
2022-12-23T03:40:06.137Z,9.9
2022-12-23T03:41:04.541Z,9.9
2022-12-23T03:42:06.783Z,9.9
2022-12-23T03:43:03.098Z,9.9
2022-12-23T03:44:03.395Z,9.9
2022-12-23T03:45:37.057Z,9.9
2022-12-23T03:46:07.855Z,9.9
2022-12-23T03:47:03.802Z,9.9
2022-12-23T03:48:04.706Z,9.9
2022-12-23T03:49:02.872Z,9.9
2022-12-23T03:50:04.154Z,9.9
2022-12-23T03:51:03.880Z,9.9
2022-12-23T03:52:04.518Z,9.9
2022-12-23T03:53:05.151Z,9.9
2022-12-23T03:54:03.977Z,9.9
2022-12-23T03:55:03.831Z,9.9
2022-12-23T03:56:02.812Z,9.9
2022-12-23T03:57:03.033Z,9.9
2022-12-23T03:58:07.056Z,9.9
2022-12-23T03:59:06.021Z,9.9
2022-12-23T04:00:00.890Z,10.0
2022-12-23T04:01:08.799Z,10.0
2022-12-23T04:02:07.170Z,9.9
2022-12-23T04:03:01.768Z,9.9
2022-12-23T04:04:07.694Z,9.9
2022-12-23T04:05:10.539Z,9.9
2022-12-23T04:06:01.094Z,9.9
2022-12-23T04:07:03.844Z,9.9
2022-12-23T04:08:04.099Z,9.9
2022-12-23T04:09:00.945Z,9.9
2022-12-23T04:10:00.706Z,9.8
2022-12-23T04:11:01.142Z,9.8
2022-12-23T04:12:00.767Z,9.8
2022-12-23T04:13:00.677Z,9.8
2022-12-23T04:14:00.756Z,9.8
2022-12-23T04:15:00.622Z,9.8
2022-12-23T04:16:01.290Z,9.8
2022-12-23T04:17:00.821Z,9.8
2022-12-23T04:18:00.930Z,9.9
2022-12-23T04:19:00.623Z,9.9
2022-12-23T04:20:00.678Z,9.9
2022-12-23T04:21:00.616Z,9.9
2022-12-23T04:22:00.619Z,9.8
2022-12-23T04:23:00.773Z,9.8
2022-12-23T04:24:00.589Z,9.8
2022-12-23T04:25:00.619Z,9.8
2022-12-23T04:26:00.615Z,9.8
2022-12-23T04:27:00.612Z,9.8
2022-12-23T04:28:00.621Z,9.9
2022-12-23T04:29:00.614Z,9.9
2022-12-23T04:30:00.605Z,9.9
2022-12-23T04:31:00.664Z,9.9
2022-12-23T04:32:00.631Z,9.9
2022-12-23T04:33:00.745Z,9.9
2022-12-23T04:34:00.627Z,9.9
2022-12-23T04:35:00.682Z,9.9
2022-12-23T04:36:00.618Z,9.9
2022-12-23T04:37:00.882Z,9.9
2022-12-23T04:38:00.589Z,9.9
2022-12-23T04:39:00.587Z,9.9
2022-12-23T04:40:00.582Z,9.9
2022-12-23T04:41:00.594Z,9.9
2022-12-23T04:42:00.585Z,9.8
2022-12-23T04:43:00.600Z,9.8
2022-12-23T04:44:00.623Z,9.8
2022-12-23T04:45:01.075Z,9.8
2022-12-23T04:46:00.582Z,9.8
2022-12-23T04:47:00.678Z,9.8
2022-12-23T04:48:00.631Z,9.8
2022-12-23T04:49:00.608Z,9.8
2022-12-23T04:50:00.624Z,9.8
2022-12-23T04:51:01.276Z,9.8
2022-12-23T04:52:00.597Z,9.8
2022-12-23T04:53:00.589Z,9.8
2022-12-23T04:54:00.591Z,9.8
2022-12-23T04:55:00.621Z,9.8
2022-12-23T04:56:00.595Z,9.8
2022-12-23T04:57:00.618Z,9.8
2022-12-23T04:58:00.587Z,9.8
2022-12-23T04:59:00.630Z,9.8
2022-12-23T05:00:00.601Z,9.7
2022-12-23T05:01:05.076Z,9.7
2022-12-23T05:02:00.894Z,9.8
2022-12-23T05:03:00.819Z,9.8
2022-12-23T05:04:00.604Z,9.8
2022-12-23T05:05:00.643Z,9.8
2022-12-23T05:06:00.617Z,9.7
2022-12-23T05:07:00.630Z,9.7
2022-12-23T05:08:01.469Z,9.8
2022-12-23T05:09:00.656Z,9.8
2022-12-23T05:10:00.612Z,9.8
2022-12-23T05:11:00.600Z,9.8
2022-12-23T05:12:00.596Z,9.8
2022-12-23T05:13:00.596Z,9.8
2022-12-23T05:14:00.625Z,9.9
2022-12-23T05:15:00.622Z,9.9
2022-12-23T05:16:00.728Z,9.8
2022-12-23T05:17:06.881Z,9.8
2022-12-23T05:18:00.597Z,9.8
2022-12-23T05:19:00.601Z,9.8
2022-12-23T05:20:00.621Z,9.8
2022-12-23T05:21:00.655Z,9.8
2022-12-23T05:22:00.632Z,9.8
2022-12-23T05:23:00.635Z,9.8
2022-12-23T05:24:00.609Z,9.8
2022-12-23T05:25:00.632Z,9.8
2022-12-23T05:26:00.608Z,9.8
2022-12-23T05:27:00.798Z,9.8
2022-12-23T05:28:00.642Z,9.8
2022-12-23T05:29:00.602Z,9.8
2022-12-23T05:30:01.072Z,9.8
2022-12-23T05:31:01.611Z,9.8
2022-12-23T05:32:00.609Z,9.8
2022-12-23T05:33:00.755Z,9.8
2022-12-23T05:34:06.064Z,9.8
2022-12-23T05:35:00.595Z,9.8
2022-12-23T05:36:00.632Z,9.8
2022-12-23T05:37:00.588Z,9.8
2022-12-23T05:38:00.604Z,9.8
2022-12-23T05:39:00.620Z,9.8
2022-12-23T05:40:00.675Z,9.8
2022-12-23T05:41:01.185Z,9.8
2022-12-23T05:42:00.592Z,9.8
2022-12-23T05:43:00.603Z,9.8
2022-12-23T05:44:00.609Z,9.8
2022-12-23T05:45:00.589Z,9.8
2022-12-23T05:46:00.638Z,9.9
2022-12-23T05:47:00.776Z,9.9
2022-12-23T05:48:00.756Z,9.8
2022-12-23T05:49:00.688Z,9.8
2022-12-23T05:50:00.958Z,9.8
2022-12-23T05:51:00.582Z,9.8
2022-12-23T05:52:00.687Z,9.8
2022-12-23T05:53:00.622Z,9.8
2022-12-23T05:54:00.630Z,9.9
2022-12-23T05:55:00.608Z,9.9
2022-12-23T05:56:02.818Z,9.9
2022-12-23T05:57:00.624Z,9.9
2022-12-23T05:58:00.752Z,9.9
2022-12-23T05:59:00.613Z,9.9
2022-12-23T06:00:00.749Z,9.8
2022-12-23T06:01:01.146Z,9.8
2022-12-23T06:02:00.805Z,9.8
2022-12-23T06:03:00.967Z,9.8
2022-12-23T06:04:00.717Z,9.8
2022-12-23T06:05:00.608Z,9.8
2022-12-23T06:06:00.695Z,9.8
2022-12-23T06:07:00.590Z,9.8
2022-12-23T06:08:00.640Z,9.8
2022-12-23T06:09:00.667Z,9.8
2022-12-23T06:10:00.631Z,9.9
2022-12-23T06:11:02.931Z,9.9
2022-12-23T06:12:00.625Z,9.8
2022-12-23T06:13:00.590Z,9.8
2022-12-23T06:14:00.634Z,9.8
2022-12-23T06:15:00.929Z,9.8
2022-12-23T06:16:00.619Z,9.7
2022-12-23T06:17:00.643Z,9.7
2022-12-23T06:18:00.643Z,9.7
2022-12-23T06:19:01.600Z,9.7
2022-12-23T06:20:00.625Z,9.7
2022-12-23T06:21:00.617Z,9.7
2022-12-23T06:22:00.625Z,9.8
2022-12-23T06:23:00.617Z,9.8
2022-12-23T06:24:00.649Z,9.8
2022-12-23T06:25:00.671Z,9.8
2022-12-23T06:26:01.103Z,9.8
2022-12-23T06:27:00.624Z,9.8
2022-12-23T06:28:00.646Z,9.8
2022-12-23T06:29:00.775Z,9.8
2022-12-23T06:30:00.608Z,9.7
2022-12-23T06:31:00.597Z,9.7
2022-12-23T06:32:00.892Z,9.7
2022-12-23T06:33:00.643Z,9.7
2022-12-23T06:34:00.625Z,9.8
2022-12-23T06:35:00.635Z,9.8
2022-12-23T06:36:00.646Z,9.7
2022-12-23T06:37:00.638Z,9.7
2022-12-23T06:38:00.611Z,9.8
2022-12-23T06:39:00.609Z,9.8
2022-12-23T06:40:00.672Z,9.7
2022-12-23T06:41:00.630Z,9.7
2022-12-23T06:42:00.601Z,9.7
2022-12-23T06:43:00.611Z,9.7
2022-12-23T06:44:00.631Z,9.8
2022-12-23T06:45:00.591Z,9.8
2022-12-23T06:46:00.697Z,9.8
2022-12-23T06:47:00.617Z,9.8
2022-12-23T06:48:00.614Z,9.8
2022-12-23T06:49:00.698Z,9.8
2022-12-23T06:50:00.628Z,9.7
2022-12-23T06:51:00.641Z,9.7
2022-12-23T06:52:00.693Z,9.7
2022-12-23T06:53:00.628Z,9.7
2022-12-23T06:54:00.760Z,9.7
2022-12-23T06:55:00.628Z,9.7
2022-12-23T06:56:01.223Z,9.7
2022-12-23T06:57:00.625Z,9.7
2022-12-23T06:58:00.629Z,9.8
2022-12-23T06:59:00.592Z,9.8
2022-12-23T07:00:00.812Z,9.7
2022-12-23T07:01:00.679Z,9.7
2022-12-23T07:02:00.933Z,9.7
2022-12-23T07:03:00.780Z,9.7
2022-12-23T07:04:00.626Z,9.7
2022-12-23T07:05:00.618Z,9.7
2022-12-23T07:06:00.613Z,9.6
2022-12-23T07:07:00.599Z,9.6
2022-12-23T07:08:00.598Z,9.6
2022-12-23T07:09:00.603Z,9.6
2022-12-23T07:10:00.591Z,9.7
2022-12-23T07:11:01.068Z,9.7
2022-12-23T07:12:01.705Z,9.7
2022-12-23T07:13:00.640Z,9.7
2022-12-23T07:14:00.590Z,9.7
2022-12-23T07:15:00.623Z,9.7
2022-12-23T07:16:05.480Z,9.7
2022-12-23T07:17:00.658Z,9.7
2022-12-23T07:18:00.610Z,9.6
2022-12-23T07:19:00.586Z,9.6
2022-12-23T07:20:00.608Z,9.6
2022-12-23T07:21:01.775Z,9.6
2022-12-23T07:22:00.613Z,9.7
2022-12-23T07:23:00.607Z,9.7
2022-12-23T07:24:00.612Z,9.6
2022-12-23T07:25:00.591Z,9.6
2022-12-23T07:26:00.589Z,9.7
2022-12-23T07:27:00.612Z,9.7
2022-12-23T07:28:00.610Z,9.7
2022-12-23T07:29:00.887Z,9.7
2022-12-23T07:30:00.688Z,9.8
2022-12-23T07:31:00.666Z,9.8
2022-12-23T07:32:01.068Z,9.7
2022-12-23T07:33:00.685Z,9.7
2022-12-23T07:34:00.621Z,9.7
2022-12-23T07:35:00.593Z,9.7
2022-12-23T07:36:00.591Z,9.7
2022-12-23T07:37:00.613Z,9.7
2022-12-23T07:38:00.675Z,9.7
2022-12-23T07:39:00.657Z,9.7
2022-12-23T07:40:05.156Z,9.7
2022-12-23T07:41:00.617Z,9.7
2022-12-23T07:42:33.976Z,9.7
2022-12-23T07:43:01.046Z,9.7
2022-12-23T07:44:00.623Z,9.7
2022-12-23T07:45:00.724Z,9.7
2022-12-23T07:46:08.172Z,9.7
2022-12-23T07:47:00.658Z,9.7
2022-12-23T07:48:00.762Z,9.7
2022-12-23T07:49:00.698Z,9.7
2022-12-23T07:50:00.674Z,9.7
2022-12-23T07:51:01.293Z,9.7
2022-12-23T07:52:00.655Z,9.7
2022-12-23T07:53:00.617Z,9.7
2022-12-23T07:54:00.666Z,9.7
2022-12-23T07:55:00.692Z,9.7
2022-12-23T07:56:00.609Z,9.7
2022-12-23T07:57:00.626Z,9.7
2022-12-23T07:58:00.621Z,9.7
2022-12-23T07:59:00.586Z,9.7
2022-12-23T08:00:00.649Z,9.7
2022-12-23T08:01:01.452Z,9.7
2022-12-23T08:02:00.778Z,9.8
2022-12-23T08:03:00.835Z,9.8
2022-12-23T08:04:00.628Z,9.8
2022-12-23T08:05:00.892Z,9.8
2022-12-23T08:06:01.957Z,9.8
2022-12-23T08:07:00.588Z,9.8
2022-12-23T08:08:00.586Z,9.7
2022-12-23T08:09:00.595Z,9.7
2022-12-23T08:10:00.923Z,9.7
2022-12-23T08:11:02.193Z,9.7
2022-12-23T08:12:00.611Z,9.8
2022-12-23T08:13:00.630Z,9.8
2022-12-23T08:14:00.615Z,9.8
2022-12-23T08:15:00.606Z,9.8
2022-12-23T08:16:01.261Z,9.8
2022-12-23T08:17:00.689Z,9.8
2022-12-23T08:18:00.601Z,9.8
2022-12-23T08:19:00.609Z,9.8
2022-12-23T08:20:00.622Z,9.8
2022-12-23T08:21:02.884Z,9.8
2022-12-23T08:22:00.633Z,9.8
2022-12-23T08:23:00.613Z,9.8
2022-12-23T08:24:00.620Z,9.8
2022-12-23T08:25:00.685Z,9.8
2022-12-23T08:26:01.602Z,9.8
2022-12-23T08:27:00.585Z,9.8
2022-12-23T08:28:00.601Z,9.8
2022-12-23T08:29:00.606Z,9.8
2022-12-23T08:30:00.593Z,9.9
2022-12-23T08:31:09.552Z,9.9
2022-12-23T08:32:00.617Z,9.8
2022-12-23T08:33:00.598Z,9.8
2022-12-23T08:34:00.665Z,9.9
2022-12-23T08:35:00.635Z,9.9
2022-12-23T08:36:00.637Z,9.9
2022-12-23T08:37:00.892Z,9.9
2022-12-23T08:38:00.653Z,9.9
2022-12-23T08:39:02.706Z,9.9
2022-12-23T08:40:00.589Z,10.0
2022-12-23T08:41:00.636Z,10.0
2022-12-23T08:42:00.650Z,9.9
2022-12-23T08:43:01.151Z,9.9
2022-12-23T08:44:00.646Z,9.9
2022-12-23T08:45:00.682Z,9.9
2022-12-23T08:46:00.675Z,9.9
2022-12-23T08:47:00.614Z,9.9
2022-12-23T08:48:00.618Z,9.8
2022-12-23T08:49:00.677Z,9.8
2022-12-23T08:50:00.908Z,9.9
2022-12-23T08:51:03.388Z,9.9
2022-12-23T08:52:00.709Z,9.9
2022-12-23T08:53:00.597Z,9.9
2022-12-23T08:54:01.553Z,9.9
2022-12-23T08:55:00.612Z,9.9
2022-12-23T08:56:02.022Z,9.9
2022-12-23T08:57:00.623Z,9.9
2022-12-23T08:58:00.602Z,9.9
2022-12-23T08:59:00.959Z,9.9
2022-12-23T09:00:00.671Z,9.9
2022-12-23T09:01:02.883Z,9.9
2022-12-23T09:02:00.656Z,9.9
2022-12-23T09:03:00.849Z,9.9
2022-12-23T09:04:02.118Z,9.9
2022-12-23T09:05:00.616Z,9.9
2022-12-23T09:06:09.828Z,10.0
2022-12-23T09:07:00.586Z,10.0
2022-12-23T09:08:00.816Z,10.0
2022-12-23T09:09:00.624Z,10.0
2022-12-23T09:10:00.943Z,9.9
2022-12-23T09:11:00.773Z,9.9
2022-12-23T09:12:00.673Z,9.9
2022-12-23T09:13:00.626Z,9.9
2022-12-23T09:14:00.670Z,10.0
2022-12-23T09:15:00.589Z,10.0
2022-12-23T09:16:00.911Z,10.0
2022-12-23T09:17:00.596Z,10.0
2022-12-23T09:18:00.597Z,9.9
2022-12-23T09:19:00.598Z,9.9
2022-12-23T09:20:00.681Z,9.9
2022-12-23T09:21:02.003Z,9.9
2022-12-23T09:22:00.619Z,10.0
2022-12-23T09:23:00.800Z,10.0
2022-12-23T09:24:00.604Z,9.9
2022-12-23T09:25:05.046Z,9.9
2022-12-23T09:26:00.637Z,9.9
2022-12-23T09:27:00.613Z,9.9
2022-12-23T09:28:00.602Z,9.8
2022-12-23T09:29:00.596Z,9.8
2022-12-23T09:30:00.584Z,9.9
2022-12-23T09:31:08.527Z,9.9
2022-12-23T09:32:00.616Z,10.0
2022-12-23T09:33:00.604Z,10.0
2022-12-23T09:34:00.622Z,10.0
2022-12-23T09:35:00.595Z,10.0
2022-12-23T09:36:01.029Z,10.0
2022-12-23T09:37:01.613Z,10.0
2022-12-23T09:38:00.589Z,9.9
2022-12-23T09:39:00.633Z,9.9
2022-12-23T09:40:00.822Z,9.9
2022-12-23T09:41:01.791Z,9.9
2022-12-23T09:42:10.528Z,9.9
2022-12-23T09:43:08.036Z,9.9
2022-12-23T09:44:00.579Z,10.1
2022-12-23T09:45:10.557Z,10.1
2022-12-23T09:46:10.553Z,10.1
2022-12-23T09:47:02.097Z,10.1
2022-12-23T09:48:01.614Z,10.0
2022-12-23T09:49:03.692Z,10.0
2022-12-23T09:50:02.595Z,10.0
2022-12-23T09:51:00.717Z,10.0
2022-12-23T09:52:02.406Z,10.1
2022-12-23T09:53:04.167Z,10.1
2022-12-23T09:54:16.404Z,9.9
2022-12-23T09:55:00.713Z,9.9
2022-12-23T09:56:07.394Z,9.9
2022-12-23T09:57:06.827Z,9.9
2022-12-23T09:58:05.555Z,9.9
2022-12-23T09:59:01.627Z,9.9
2022-12-23T10:00:01.595Z,9.9
2022-12-23T10:01:07.437Z,9.9
2022-12-23T10:02:10.676Z,9.9
2022-12-23T10:03:10.888Z,9.9
2022-12-23T10:04:10.614Z,10.0
2022-12-23T10:05:10.550Z,10.0
2022-12-23T10:06:06.742Z,10.0
2022-12-23T10:07:03.877Z,10.0
2022-12-23T10:08:02.620Z,9.9
2022-12-23T10:09:02.622Z,9.9
2022-12-23T10:10:05.420Z,9.9
2022-12-23T10:11:00.613Z,9.9
2022-12-23T10:12:04.552Z,9.9
2022-12-23T10:13:03.555Z,9.9
2022-12-23T10:14:03.712Z,9.9
2022-12-23T10:15:01.314Z,9.9
2022-12-23T10:16:04.714Z,9.9
2022-12-23T10:17:03.979Z,9.9
2022-12-23T10:18:04.266Z,10.0
2022-12-23T10:19:05.285Z,10.0
2022-12-23T10:20:02.264Z,10.0
2022-12-23T10:21:04.267Z,10.0
2022-12-23T10:22:02.336Z,9.9
2022-12-23T10:23:00.633Z,9.9
2022-12-23T10:24:04.143Z,9.9
2022-12-23T10:25:02.084Z,9.9
2022-12-23T10:26:02.817Z,9.9
2022-12-23T10:27:02.273Z,9.9
2022-12-23T10:28:00.614Z,10.0
2022-12-23T10:29:14.135Z,10.0
2022-12-23T10:30:33.686Z,9.8
2022-12-23T10:32:06.013Z,9.8
2022-12-23T10:33:03.657Z,9.8
2022-12-23T10:34:06.308Z,9.9
2022-12-23T10:35:03.823Z,9.9
2022-12-23T10:36:01.663Z,9.8
2022-12-23T10:37:04.684Z,9.8
2022-12-23T10:38:06.754Z,9.8
2022-12-23T10:39:04.843Z,9.8
2022-12-23T10:40:10.529Z,9.9
2022-12-23T10:41:06.977Z,9.9
2022-12-23T10:42:07.100Z,10.0
2022-12-23T10:43:03.827Z,10.0
2022-12-23T10:44:08.105Z,9.9
2022-12-23T10:45:00.605Z,9.9
2022-12-23T10:46:10.599Z,9.9
2022-12-23T10:47:10.542Z,9.9
2022-12-23T10:48:01.605Z,10.0
2022-12-23T10:49:10.539Z,10.0
2022-12-23T10:50:00.581Z,9.9
2022-12-23T10:51:03.348Z,9.9
2022-12-23T10:52:10.553Z,10.0
2022-12-23T10:53:03.002Z,10.0
2022-12-23T10:54:04.859Z,9.9
2022-12-23T10:55:00.602Z,9.9
2022-12-23T10:56:02.253Z,9.9
2022-12-23T10:57:01.550Z,9.9
2022-12-23T10:58:06.400Z,9.8
2022-12-23T10:59:00.621Z,9.8
2022-12-23T11:00:00.679Z,9.9
2022-12-23T11:01:04.616Z,9.9
2022-12-23T11:02:01.778Z,9.8
2022-12-23T11:03:10.706Z,9.8
2022-12-23T11:04:06.146Z,9.9
2022-12-23T11:05:00.606Z,9.9
2022-12-23T11:06:01.074Z,9.9
2022-12-23T11:07:41.477Z,9.9
2022-12-23T11:08:01.088Z,10.0
2022-12-23T11:09:01.369Z,10.0
2022-12-23T11:10:02.997Z,9.9
2022-12-23T11:11:00.600Z,9.9
2022-12-23T11:12:02.128Z,9.9
2022-12-23T11:13:00.653Z,9.9
2022-12-23T11:14:00.596Z,9.9
2022-12-23T11:15:00.655Z,9.9
2022-12-23T11:16:10.615Z,9.9
2022-12-23T11:17:00.737Z,9.9
2022-12-23T11:18:02.403Z,9.9
2022-12-23T11:19:00.614Z,9.9
2022-12-23T11:20:10.590Z,9.8
2022-12-23T11:21:02.233Z,9.8
2022-12-23T11:22:00.615Z,9.9
2022-12-23T11:23:01.555Z,9.9
2022-12-23T11:24:10.557Z,9.9
2022-12-23T11:25:10.526Z,9.9
2022-12-23T11:26:02.588Z,9.9
2022-12-23T11:27:02.273Z,9.9
2022-12-23T11:28:00.611Z,9.9
2022-12-23T11:29:04.578Z,9.9
2022-12-23T11:30:00.803Z,9.9
2022-12-23T11:31:02.834Z,9.9
2022-12-23T11:32:02.212Z,9.9
2022-12-23T11:33:00.679Z,9.9
2022-12-23T11:34:02.191Z,9.9
2022-12-23T11:35:00.707Z,9.9
2022-12-23T11:36:00.575Z,9.9
2022-12-23T11:37:05.523Z,9.9
2022-12-23T11:38:01.323Z,9.9
2022-12-23T11:39:05.763Z,9.9
2022-12-23T11:40:00.825Z,9.8
2022-12-23T11:41:02.010Z,9.8
2022-12-23T11:42:10.553Z,9.9
2022-12-23T11:43:01.625Z,9.9
2022-12-23T11:44:04.028Z,9.9
2022-12-23T11:45:05.490Z,9.9
2022-12-23T11:46:10.651Z,9.9
2022-12-23T11:47:10.527Z,9.9
2022-12-23T11:48:02.025Z,9.8
2022-12-23T11:49:10.521Z,9.8
2022-12-23T11:50:01.987Z,9.9
2022-12-23T11:51:02.104Z,9.9
2022-12-23T11:52:10.111Z,9.9
2022-12-23T11:53:03.488Z,9.9
2022-12-23T11:54:01.339Z,9.8
2022-12-23T11:55:01.659Z,9.8
2022-12-23T11:56:03.470Z,9.8
2022-12-23T11:57:02.527Z,9.8
2022-12-23T11:58:01.557Z,9.8
2022-12-23T11:59:04.659Z,9.8
2022-12-23T12:00:01.398Z,9.9
2022-12-23T12:01:06.412Z,9.9
2022-12-23T12:02:04.356Z,9.9
2022-12-23T12:03:02.659Z,9.9
2022-12-23T12:04:06.745Z,9.9
2022-12-23T12:05:03.760Z,9.9
2022-12-23T12:06:02.517Z,10.0
2022-12-23T12:07:02.176Z,10.0
2022-12-23T12:08:02.803Z,9.9
2022-12-23T12:09:02.858Z,9.9
2022-12-23T12:10:01.106Z,9.9
2022-12-23T12:11:03.643Z,9.9
2022-12-23T12:12:04.461Z,9.9
2022-12-23T12:13:02.391Z,9.9
2022-12-23T12:14:02.677Z,9.8
2022-12-23T12:15:00.692Z,9.8
2022-12-23T12:16:07.987Z,9.9
2022-12-23T12:17:08.216Z,9.9
2022-12-23T12:18:05.751Z,9.9
2022-12-23T12:19:04.220Z,9.9
2022-12-23T12:20:09.620Z,9.9
2022-12-23T12:21:04.485Z,9.9
2022-12-23T12:22:04.783Z,9.8
2022-12-23T12:23:05.656Z,9.8
2022-12-23T12:24:18.464Z,9.9
2022-12-23T12:25:08.065Z,9.9
2022-12-23T12:26:03.544Z,9.7
2022-12-23T12:27:02.235Z,9.7
2022-12-23T12:28:03.301Z,9.8
2022-12-23T12:29:05.570Z,9.8
2022-12-23T12:30:08.123Z,9.7
2022-12-23T12:31:04.890Z,9.7
2022-12-23T12:32:00.934Z,9.8
2022-12-23T12:33:05.116Z,9.8
2022-12-23T12:34:06.527Z,9.6
2022-12-23T12:35:05.005Z,9.6
2022-12-23T12:36:10.585Z,9.6
2022-12-23T12:37:10.569Z,9.6
2022-12-23T12:38:05.769Z,9.6
2022-12-23T12:39:00.644Z,9.6
2022-12-23T12:40:06.953Z,9.7
2022-12-23T12:41:05.125Z,9.7
2022-12-23T12:42:10.187Z,9.8
2022-12-23T12:43:04.311Z,9.8
2022-12-23T12:44:06.519Z,9.7
2022-12-23T12:45:10.549Z,9.7
2022-12-23T12:46:03.954Z,9.8
2022-12-23T12:47:27.958Z,9.8
2022-12-23T12:48:18.332Z,9.8
2022-12-23T12:49:00.663Z,9.8
2022-12-23T12:50:05.182Z,9.7
2022-12-23T12:51:04.385Z,9.7
2022-12-23T12:52:10.554Z,9.8
2022-12-23T12:53:10.197Z,9.8
2022-12-23T12:54:05.916Z,9.9
2022-12-23T12:55:05.036Z,9.9
2022-12-23T12:56:06.776Z,9.7
2022-12-23T12:57:00.614Z,9.7
2022-12-23T12:58:00.832Z,9.7
2022-12-23T12:59:00.613Z,9.7
2022-12-23T13:00:06.233Z,9.8
2022-12-23T13:01:10.555Z,9.8
2022-12-23T13:02:10.568Z,9.7
2022-12-23T13:03:10.190Z,9.7
2022-12-23T13:04:10.532Z,9.6
2022-12-23T13:05:00.615Z,9.6
2022-12-23T13:06:07.992Z,9.6
2022-12-23T13:07:10.550Z,9.6
2022-12-23T13:09:00.284Z,9.6
2022-12-23T13:10:09.177Z,9.5
2022-12-23T13:11:00.225Z,9.5
2022-12-23T13:12:04.519Z,9.4
2022-12-23T13:13:03.501Z,9.4
2022-12-23T13:14:10.177Z,9.6
2022-12-23T13:15:07.761Z,9.6
2022-12-23T13:16:10.199Z,9.6
2022-12-23T13:17:10.229Z,9.6
2022-12-23T13:18:03.876Z,9.5
2022-12-23T13:19:00.229Z,9.5
2022-12-23T13:20:10.195Z,9.5
2022-12-23T13:21:05.648Z,9.5
2022-12-23T13:22:05.339Z,9.6
2022-12-23T13:23:26.946Z,9.6
2022-12-23T13:24:10.229Z,9.7
2022-12-23T13:25:07.967Z,9.7
2022-12-23T13:26:04.044Z,9.5
2022-12-23T13:27:01.261Z,9.5
2022-12-23T13:28:10.181Z,9.7
2022-12-23T13:29:10.184Z,9.7
2022-12-23T13:30:10.201Z,9.7
2022-12-23T13:31:06.325Z,9.7
2022-12-23T13:32:10.210Z,9.6
2022-12-23T13:33:01.231Z,9.6
2022-12-23T13:34:10.176Z,9.7
2022-12-23T13:35:07.304Z,9.7
2022-12-23T13:36:05.295Z,9.6
2022-12-23T13:37:08.876Z,9.6
2022-12-23T13:38:01.237Z,9.8
2022-12-23T13:39:10.181Z,9.8
2022-12-23T13:40:10.213Z,9.7
2022-12-23T13:41:10.178Z,9.7